Terminal Aerodrome Forecast
Issued by NWS

Home | Current Version | Previous Version | Text Only | Print | Product List | Glossary On
Versions: 1 2 3 4 5 6 7 8 9 10 11 12 13 14 15 16 17 18 19 20 21 22
000
FTUS43 KPAH 161100
TAFCGI
TAF
KCGI 161120Z 1612/1712 02010KT P6SM BKN014 OVC050
      TEMPO 1614/1618 SCT014 OVC050
     FM161800 02006KT P6SM BKN035
     FM170100 01002KT P6SM SKC
     FM170800 00000KT 2SM BR FEW010=

USA.gov is the U.S. government's official web portal to all federal, state and local government web resources and services.